Latest Weather Observations for Liawenee

IDT60801

Issued at 5:31 pm EST Wednesday 26 April 2017 (issued every 30 minutes, with the page automatically refreshed every 10 minutes)

About weather observations | Map of weather stations | Latest weather observations for TAS | Other Formats
Station Details ID: 096033 Name: LIAWENEE Lat: -41.90 Lon: 146.67 Height: 1057.0 m
Data from the previous 72 hours. | See also: Recent months at Liawenee
Date/Time
EST
Temp
°C
App
Temp
°C
Dew
Point
°C
Rel
Hum
%
Delta-T
°C
Wind Press
QNH
hPa
Press
MSL
hPa
Rain since
9am
mm
Dir  Spd
km/h
Gust
km/h
Spd
kts
Gust
kts
26/05:30pm -0.2 -5.1 -0.3 99 0.0 SW 15 20 8 11 1011.3 1011.2 0.2
26/05:00pm 0.8 -4.3 0.7 99 0.0 SSW 17 24 9 13 1010.8 1010.6 0.2
26/04:30pm 0.6 -4.5 0.5 99 0.0 SSW 17 24 9 13 1010.1 1009.9 0.2
26/04:00pm 0.6 -6.2 0.5 99 0.0 SSW 26 32 14 17 1009.6 1009.5 0.2
26/03:30pm 1.9 -5.8 0.0 87 0.8 SW 30 41 16 22 1009.1 1008.9 0.2
26/03:00pm 1.6 -5.9 0.9 95 0.3 SW 30 39 16 21 1008.6 1008.5 0.2
26/02:30pm 4.4 -3.3 -0.2 72 1.9 SW 30 39 16 21 1007.9 1007.7 0.2
26/02:00pm 3.2 -4.6 -0.6 76 1.5 SSW 30 41 16 22 1007.7 1007.4 0.2
26/01:30pm 3.0 -4.4 1.7 91 0.5 SW 30 43 16 23 1007.5 1007.3 0.2
26/01:00pm 3.8 -4.3 -0.4 74 1.7 SSW 32 46 17 25 1007.2 1007.0 0.2
26/12:30pm 3.5 -4.2 -0.3 76 1.5 SSW 30 43 16 23 1007.2 1007.0 0.2
26/12:00pm 2.8 -4.1 0.0 82 1.1 SW 26 35 14 19 1007.0 1006.7 0.2
26/11:30am 1.9 -5.5 -0.5 84 0.9 SSW 28 39 15 21 1007.1 1006.9 0.2
26/11:00am 1.8 -5.5 0.3 90 0.6 SSW 28 39 15 21 1006.9 1006.6 0.2
26/10:30am 1.3 -6.7 0.4 94 0.4 SSW 32 41 17 22 1006.3 1006.1 0.2
26/10:00am 1.4 -6.7 1.3 99 0.0 SSW 33 46 18 25 1006.3 1006.1 0.2
26/09:30am 0.9 -5.9 0.8 99 0.0 SSW 26 35 14 19 1006.1 1005.8 0.0
26/09:00am 0.8 -5.6 0.7 99 0.0 SSW 24 33 13 18 1005.7 1005.4 0.2
26/08:30am 0.4 -6.5 0.3 99 0.0 SW 26 37 14 20 1005.1 1004.8 0.2
26/08:00am 0.5 -6.7 0.4 99 0.0 SSW 28 37 15 20 1004.5 1004.3 0.2
26/07:30am 0.3 -6.6 0.2 99 0.0 SW 26 37 14 20 1004.0 1003.7 0.2
26/07:00am 1.0 -5.8 0.9 99 0.0 SSW 26 35 14 19 1003.3 1003.0 0.0
26/06:30am 1.1 -6.4 1.0 99 0.0 SW 30 43 16 23 1002.8 1002.4 0.0
26/06:00am 1.3 -6.6 1.2 99 0.0 SW 32 41 17 22 1002.2 1001.9 0.0
26/05:30am 1.7 -5.7 1.6 99 0.0 SSW 30 41 16 22 1001.7 1001.3 0.0
26/05:00am 2.1 -3.4 2.0 99 0.0 SSW 20 30 11 16 1000.9 1000.5 0.0
26/04:30am 2.3 -2.6 2.2 99 0.0 SSW 17 22 9 12 1000.7 1000.3 0.0
26/04:00am 2.4 -2.5 2.3 99 0.0 SW 17 24 9 13 1000.3 999.9 0.0
26/03:30am 2.5 -1.6 2.4 99 0.0 SW 13 17 7 9 1000.0 999.6 0.0
26/03:00am 2.6 -2.8 2.5 99 0.0 SW 20 32 11 17 1000.0 999.6 0.0
26/02:30am 3.1 -3.7 3.0 99 0.0 SW 28 35 15 19 999.7 999.3 0.0
26/02:00am 3.8 -1.8 3.7 99 0.0 SW 22 33 12 18 999.2 998.8 0.0
26/01:30am 4.2 -0.3 4.1 99 0.0 W 17 24 9 13 998.8 998.3 0.0
26/01:00am 4.5 -0.4 4.2 98 0.1 WNW 19 28 10 15 998.9 998.5 0.0
26/12:30am 4.6 0.1 4.3 98 0.1 WNW 17 24 9 13 998.8 998.3 0.0
26/12:00am 4.1 -0.2 3.5 96 0.3 WNW 15 22 8 12 999.1 998.7 0.0
 
Date/Time
EST
Temp
°C
App
Temp
°C
Dew
Point
°C
Rel
Hum
%
Delta-T
°C
Wind Press
QNH
hPa
Press
MSL
hPa
Rain since
9am
mm
Dir  Spd
km/h
Gust
km/h
Spd
kts
Gust
kts
25/11:30pm 3.6 -0.7 3.0 96 0.3 NW 15 24 8 13 999.3 998.9 0.0
25/11:00pm 3.3 -0.4 2.4 94 0.4 NW 11 19 6 10 999.5 999.0 0.0
25/10:30pm 2.2 -0.8 2.1 99 0.0 WNW 7 11 4 6 999.6 999.1 0.0
25/10:00pm 1.5 -1.0 1.4 99 0.0 WNW 4 11 2 6 999.9 999.5 0.0
25/09:30pm 1.8 -2.0 1.5 98 0.1 W 11 13 6 7 1000.2 999.8 0.0
25/09:00pm 2.9 -0.5 2.0 94 0.4 NW 9 15 5 8 1000.4 1000.1 0.0
25/08:30pm 3.4 -0.3 2.4 93 0.4 WNW 11 17 6 9 1000.8 1000.4 0.0
25/08:00pm 3.6 -0.1 2.4 92 0.5 WNW 11 15 6 8 1000.9 1000.5 0.0
25/07:30pm 4.3 0.7 3.1 92 0.5 NW 11 17 6 9 1001.0 1000.6 0.0
25/07:00pm 4.7 0.5 3.7 93 0.4 WNW 15 22 8 12 1001.0 1000.6 0.0
25/06:30pm 4.5 1.3 3.3 92 0.5 WNW 9 13 5 7 1001.0 1000.6 0.0
25/06:00pm 5.3 1.9 4.1 92 0.5 WNW 11 15 6 8 1001.0 1000.6 0.0
25/05:30pm 6.0 2.9 3.7 85 1.0 WNW 9 15 5 8 1001.0 1000.6 0.0
25/05:00pm 6.8 2.9 3.6 80 1.5 WSW 13 15 7 8 1001.0 1000.6 0.0
25/04:30pm 8.1 3.0 4.1 76 1.9 W 20 32 11 17 1001.4 1001.1 0.0
25/04:00pm 10.0 5.5 4.4 68 2.7 W 17 22 9 12 1001.1 1000.7 0.0
25/03:30pm 10.3 5.4 4.2 66 2.9 W 19 24 10 13 1001.3 1001.0 0.0
25/03:00pm 11.6 7.1 5.9 68 2.8 WSW 19 26 10 14 1001.4 1001.1 0.0
25/02:30pm 11.8 7.3 6.1 68 2.8 W 19 28 10 15 1001.7 1001.3 0.0
25/02:00pm 11.7 7.6 6.2 69 2.8 WNW 17 24 9 13 1001.8 1001.4 0.0
25/01:30pm 11.0 6.3 6.2 72 2.4 W 20 28 11 15 1002.1 1001.8 0.0
25/01:00pm 11.5 7.0 6.8 73 2.4 W 20 26 11 14 1002.6 1002.2 0.0
25/12:30pm 11.0 7.8 8.6 85 1.3 W 15 20 8 11 1002.9 1002.5 0.0
25/12:00pm 10.7 7.2 8.8 88 1.0 SW 17 26 9 14 1003.6 1003.2 0.0
25/11:30am 10.1 6.5 8.2 88 1.0 WSW 17 24 9 13 1004.2 1003.9 0.0
25/11:00am 9.7 7.3 8.8 94 0.5 WSW 11 15 6 8 1004.8 1004.5 0.0
25/10:30am 8.5 5.2 8.2 98 0.2 WSW 15 20 8 11 1005.0 1004.7 0.0
25/10:00am 8.9 5.7 8.5 97 0.2 W 15 20 8 11 1005.3 1005.0 0.0
25/09:30am 8.8 5.2 8.5 98 0.2 WSW 17 20 9 11 1005.9 1005.6 0.0
25/09:00am 8.4 5.9 8.3 99 0.1 WSW 11 17 6 9 1006.3 1006.1 2.6
25/08:30am 8.3 6.2 8.2 99 0.1 WSW 9 13 5 7 1006.7 1006.4 2.6
25/08:00am 8.0 5.8 7.9 99 0.1 WSW 9 13 5 7 1006.7 1006.4 2.6
25/07:30am 7.8 4.8 7.7 99 0.1 SW 13 17 7 9 1006.5 1006.3 2.6
25/07:00am 8.1 5.2 8.0 99 0.1 WNW 13 19 7 10 1006.5 1006.3 2.6
25/06:30am 8.2 5.7 8.1 99 0.1 NW 11 19 6 10 1006.7 1006.4 2.6
25/06:00am 8.0 6.4 7.9 99 0.1 NE 6 9 3 5 1006.8 1006.5 2.6
25/05:30am 8.0 6.8 7.9 99 0.1 WNW 4 9 2 5 1007.2 1007.0 2.6
25/05:00am 8.3 6.6 8.2 99 0.1 N 7 11 4 6 1007.3 1007.1 2.6
25/04:30am 8.2 6.6 8.1 99 0.1 N 6 11 3 6 1007.9 1007.7 2.6
25/04:00am 8.3 6.6 8.2 99 0.1 WNW 7 15 4 8 1008.4 1008.2 2.4
25/03:30am 8.3 7.1 8.2 99 0.1 NNW 4 11 2 6 1008.4 1008.2 2.2
25/03:00am 8.4 6.7 8.3 99 0.1 NW 7 13 4 7 1009.1 1008.9 2.0
25/02:30am 8.6 6.9 8.5 99 0.1 NNE 7 13 4 7 1009.3 1009.1 2.0
25/02:00am 8.8 7.1 8.2 96 0.3 NNW 7 13 4 7 1010.1 1009.9 2.0
25/01:30am 8.8 6.7 8.2 96 0.3 N 9 17 5 9 1010.4 1010.3 2.0
25/01:00am 8.9 6.9 8.5 97 0.2 NNW 9 17 5 9 1010.9 1010.7 2.0
25/12:30am 8.9 6.9 8.6 98 0.2 NNW 9 17 5 9 1011.3 1011.2 2.0
25/12:00am 8.7 7.1 8.6 99 0.1 N 7 11 4 6 1011.8 1011.6 2.0
 
Date/Time
EST
Temp
°C
App
Temp
°C
Dew
Point
°C
Rel
Hum
%
Delta-T
°C
Wind Press
QNH
hPa
Press
MSL
hPa
Rain since
9am
mm
Dir  Spd
km/h
Gust
km/h
Spd
kts
Gust
kts
24/11:30pm 8.5 6.8 8.2 98 0.2 NNW 7 9 4 5 1012.5 1012.4 2.0
24/11:00pm 8.6 6.5 8.2 97 0.2 N 9 15 5 8 1013.0 1012.9 2.0
24/10:30pm 8.7 6.6 8.1 96 0.3 NNW 9 19 5 10 1013.4 1013.3 2.0
24/10:00pm 8.8 6.7 8.2 96 0.3 NNW 9 17 5 9 1013.6 1013.6 2.0
24/09:30pm 8.5 6.3 7.9 96 0.3 NNW 9 13 5 7 1013.6 1013.6 2.0
24/09:00pm 8.4 6.2 7.8 96 0.3 NW 9 15 5 8 1014.2 1014.1 2.0
24/08:30pm 8.4 5.5 8.1 98 0.2 NW 13 17 7 9 1014.6 1014.6 2.0
24/08:00pm 8.5 5.9 7.7 95 0.4 NNW 11 19 6 10 1014.4 1014.4 2.0
24/07:30pm 8.8 6.7 8.4 97 0.2 NW 9 13 5 7 1014.9 1014.8 2.0
24/07:00pm 9.2 7.2 8.7 97 0.3 NNW 9 15 5 8 1014.7 1014.7 2.0
24/06:30pm 9.5 7.2 9.0 97 0.3 NNW 11 19 6 10 1014.9 1014.8 2.0
24/06:00pm 9.8 7.6 9.5 98 0.2 NNW 11 17 6 9 1015.1 1015.0 2.0
24/05:30pm 9.6 8.1 9.3 98 0.2 N 7 11 4 6 1015.0 1014.9 2.0
24/05:00pm 9.8 7.9 9.0 95 0.4 NNW 9 15 5 8 1015.3 1015.3 2.0
24/04:30pm 10.5 8.8 9.7 95 0.4 N 9 15 5 8 1015.4 1015.4 2.0
24/04:00pm 11.4 10.1 10.1 92 0.7 NNW 7 13 4 7 1015.7 1015.7 2.0
24/03:30pm 11.3 9.7 10.2 93 0.6 NNW 9 13 5 7 1015.7 1015.7 2.0
24/03:00pm 11.3 9.8 10.4 94 0.5 NW 9 17 5 9 1016.0 1015.9 2.0
24/02:30pm 11.4 9.5 10.6 95 0.4 NW 11 19 6 10 1016.2 1016.2 2.0
24/02:00pm 11.4 9.2 10.9 97 0.3 NW 13 20 7 11 1016.5 1016.5 2.0
24/01:30pm 10.8 7.8 10.6 99 0.1 NW 17 26 9 14 1017.0 1017.0 2.0
24/01:00pm 9.8 6.2 9.7 99 0.1 NW 19 30 10 16 1017.4 1017.4 2.0
24/12:30pm 9.4 6.0 9.3 99 0.1 NW 17 30 9 16 1018.2 1018.2 1.6
24/12:00pm 10.4 7.3 10.2 99 0.1 N 17 28 9 15 1018.4 1018.4 0.8
24/11:30am 10.5 7.4 10.3 99 0.1 N 17 28 9 15 1018.8 1018.9 0.6
24/11:00am 10.2 7.4 10.1 99 0.1 N 15 24 8 13 1019.4 1019.5 0.4
24/10:30am 10.3 6.6 10.1 99 0.1 N 20 32 11 17 1019.5 1019.6 0.0
24/10:00am 10.4 8.1 10.4 100 0.0 NNE 13 20 7 11 1019.6 1019.7 0.0
24/09:30am 9.7 6.8 9.7 100 0.0 NNE 15 22 8 12 1020.3 1020.4 0.0
24/09:00am 9.5 6.6 9.5 100 0.0 N 15 20 8 11 1020.6 1020.7 9.2
24/08:30am 9.4 6.8 9.4 100 0.0 NNE 13 20 7 11 1020.7 1020.8 9.2
24/08:00am 9.2 6.6 9.2 100 0.0 NNE 13 20 7 11 1020.9 1021.0 9.0
24/07:30am 9.1 7.2 9.1 100 0.0 NNE 9 13 5 7 1021.2 1021.3 9.0
24/07:00am 9.0 6.7 9.0 100 0.0 NNE 11 15 6 8 1021.2 1021.3 9.0
24/06:30am 9.0 6.3 9.0 100 0.0 NNE 13 19 7 10 1021.4 1021.5 8.8
24/06:00am 9.1 6.8 9.1 100 0.0 NNE 11 17 6 9 1021.6 1021.7 8.8
24/05:30am 9.2 7.3 9.2 100 0.0 NNE 9 13 5 7 1021.6 1021.7 8.8
24/05:00am 9.3 7.1 9.3 100 0.0 NNE 11 15 6 8 1021.7 1021.8 8.8
24/04:30am 9.3 7.1 9.3 100 0.0 NNE 11 17 6 9 1021.8 1022.0 8.8
24/04:00am 9.4 6.4 9.4 100 0.0 NNE 15 20 8 11 1021.8 1022.0 8.6
24/03:30am 9.4 6.4 9.4 100 0.0 NNE 15 20 8 11 1021.8 1022.0 8.6
24/03:00am 9.4 6.4 9.4 100 0.0 NNE 15 20 8 11 1022.3 1022.4 8.6
24/02:30am 9.3 7.5 9.3 100 0.0 NNE 9 11 5 6 1022.5 1022.6 8.6
24/02:00am 9.2 7.0 9.2 100 0.0 NE 11 15 6 8 1022.7 1022.9 8.4
24/01:30am 9.2 6.6 9.2 100 0.0 NE 13 19 7 10 1023.1 1023.2 8.2
24/01:00am 9.2 7.0 9.2 100 0.0 ENE 11 13 6 7 1023.3 1023.4 8.2
24/12:30am 9.1 7.2 9.1 100 0.0 NE 9 11 5 6 1023.5 1023.7 7.6
24/12:00am 9.0 7.1 9.0 100 0.0 NE 9 11 5 6 1023.7 1023.9 7.6
 
Date/Time
EST
Temp
°C
App
Temp
°C
Dew
Point
°C
Rel
Hum
%
Delta-T
°C
Wind Press
QNH
hPa
Press
MSL
hPa
Rain since
9am
mm
Dir  Spd
km/h
Gust
km/h
Spd
kts
Gust
kts
23/11:30pm 9.0 6.7 9.0 100 0.0 NE 11 15 6 8 1024.2 1024.3 7.4
23/11:00pm 9.0 6.7 8.9 99 0.1 NNE 11 13 6 7 1024.4 1024.6 7.4
23/10:30pm 9.1 6.8 9.0 99 0.1 NNE 11 13 6 7 1024.7 1024.9 7.0
23/10:00pm 9.2 7.3 9.2 100 0.0 NE 9 11 5 6 1024.9 1025.1 7.0
23/09:30pm 9.4 8.0 9.4 100 0.0 NE 7 9 4 5 1025.0 1025.2 6.6
23/09:00pm 9.4 8.2 9.4 100 0.0 NNE 6 9 3 5 1025.0 1025.2 6.6
23/08:30pm 9.4 7.6 9.4 100 0.0 NE 9 13 5 7 1024.7 1024.9 6.6
23/08:00pm 9.6 8.2 9.6 100 0.0 NE 7 9 4 5 1024.9 1025.1 6.6
23/07:30pm 9.6 8.2 9.6 100 0.0 NE 7 11 4 6 1024.8 1025.0 6.6
23/07:00pm 9.6 8.2 9.6 100 0.0 NE 7 9 4 5 1024.6 1024.8 6.6
23/06:30pm 9.6 8.2 9.6 100 0.0 E 7 13 4 7 1024.6 1024.8 6.6
23/06:00pm 9.8 8.5 9.8 100 0.0 ENE 7 11 4 6 1024.4 1024.6 5.6

Other Formats:

Comma delimited format used in spreadsheet applications
http://www.bom.gov.au/fwo/IDT60801/IDT60801.95959.axf

JavaScript Object Notation format (JSON) in row-major order
http://www.bom.gov.au/fwo/IDT60801/IDT60801.95959.json